Terminal Aerodrome Forecast
Issued by NWS

Home | Current Version | Previous Version | Text Only | Print | Product List | Glossary On
Versions: 1 2 3 4 5 6 7 8 9 10 11 12 13 14 15 16
000
FTUS43 KGRB 230500
TAFATW
TAF
KATW 230520Z 2306/2406 01004KT P6SM SKC
     FM231500 04007KT P6SM BKN250
     FM232100 12008KT P6SM SCT070 BKN100
     FM240300 13005KT P6SM SCT040 BKN080=

USA.gov is the U.S. government's official web portal to all federal, state and local government web resources and services.